createdAt,value
2018-08-06T00:00:52.819Z,40.80
2018-08-06T00:03:23.451Z,40.60
2018-08-06T00:05:53.879Z,40.60
2018-08-06T00:08:24.793Z,40.60
2018-08-06T00:10:55.546Z,40.70
2018-08-06T00:13:25.923Z,40.60
2018-08-06T00:15:56.562Z,40.60
2018-08-06T00:18:27.471Z,40.60
2018-08-06T00:23:28.678Z,40.50
2018-08-06T00:25:59.291Z,40.60
2018-08-06T00:28:31.136Z,40.70
2018-08-06T00:31:01.975Z,40.60
2018-08-06T00:33:32.323Z,40.70
2018-08-06T00:36:03.224Z,40.90
2018-08-06T00:41:05.122Z,41.20
2018-08-06T00:43:35.475Z,41.10
2018-08-06T00:46:06.519Z,41.00
2018-08-06T00:48:37.495Z,41.50
2018-08-06T00:53:38.923Z,41.30
2018-08-06T00:58:39.470Z,41.40
2018-08-06T01:06:13.097Z,42.30
2018-08-06T01:08:43.992Z,41.80
2018-08-06T01:11:15.088Z,41.80
2018-08-06T01:13:45.865Z,42.10
2018-08-06T01:16:16.203Z,41.90
2018-08-06T01:18:47.432Z,41.80
2018-08-06T01:21:18.232Z,42.10
2018-08-06T01:23:49.102Z,42.40
2018-08-06T01:26:19.447Z,42.10
2018-08-06T01:28:50.246Z,42.30
2018-08-06T01:31:21.138Z,43.10
2018-08-06T01:33:51.852Z,42.30
2018-08-06T01:36:22.403Z,42.90
2018-08-06T01:38:53.089Z,42.70
2018-08-06T01:41:24.301Z,42.90
2018-08-06T01:46:25.466Z,42.50
2018-08-06T01:48:56.903Z,42.90
2018-08-06T01:51:28.367Z,42.80
2018-08-06T01:53:59.027Z,42.70
2018-08-06T01:56:30.049Z,42.70
2018-08-06T01:59:00.871Z,42.90
2018-08-06T02:01:31.975Z,43.10
2018-08-06T02:04:02.379Z,43.60
2018-08-06T02:06:32.942Z,43.40
2018-08-06T02:09:04.989Z,43.20
2018-08-06T02:11:37.879Z,43.40
2018-08-06T02:14:08.482Z,43.80
2018-08-06T02:16:39.651Z,43.40
2018-08-06T02:21:40.503Z,43.60
2018-08-06T02:24:11.455Z,43.70
2018-08-06T02:26:42.066Z,43.50
2018-08-06T02:29:12.781Z,43.50
2018-08-06T02:31:43.351Z,43.80
2018-08-06T02:34:15.297Z,43.80
2018-08-06T02:36:46.227Z,44.00
2018-08-06T02:39:16.959Z,43.80
2018-08-06T02:41:47.893Z,43.80
2018-08-06T02:44:19.328Z,43.90
2018-08-06T02:46:50.219Z,44.00
2018-08-06T02:49:21.428Z,44.10
2018-08-06T02:51:51.818Z,44.20
2018-08-06T02:54:23.059Z,44.10
2018-08-06T02:56:54.035Z,44.40
2018-08-06T02:59:24.742Z,44.30
2018-08-06T03:01:55.668Z,44.40
2018-08-06T03:04:26.400Z,44.70
2018-08-06T03:06:56.761Z,45.70
2018-08-06T03:09:27.495Z,45.20
2018-08-06T03:11:57.855Z,45.00
2018-08-06T03:16:58.434Z,45.30
2018-08-06T03:19:29.588Z,45.00
2018-08-06T03:22:00.000Z,45.50
2018-08-06T03:24:30.621Z,45.40
2018-08-06T03:27:01.286Z,45.80
2018-08-06T03:29:32.260Z,45.40
2018-08-06T03:32:03.677Z,45.70
2018-08-06T03:34:34.396Z,46.00
2018-08-06T03:37:05.403Z,46.00
2018-08-06T03:39:35.797Z,46.30
2018-08-06T03:42:06.654Z,46.20
2018-08-06T03:47:07.598Z,46.20
2018-08-06T03:52:08.892Z,46.20
2018-08-06T03:54:40.043Z,46.70
2018-08-06T03:57:13.722Z,46.50
2018-08-06T03:59:44.352Z,46.40
2018-08-06T04:02:15.268Z,46.50
2018-08-06T04:07:16.188Z,46.50
2018-08-06T04:09:46.815Z,46.70
2018-08-06T04:12:17.171Z,46.70
2018-08-06T04:14:48.452Z,47.10
2018-08-06T04:17:19.664Z,47.10
2018-08-06T04:22:21.602Z,47.40
2018-08-06T04:24:52.432Z,47.30
2018-08-06T04:27:23.015Z,47.50
2018-08-06T04:29:53.733Z,47.60
2018-08-06T04:32:24.582Z,47.90
2018-08-06T04:37:25.796Z,47.90
2018-08-06T04:39:56.731Z,47.70
2018-08-06T04:42:27.667Z,47.90
2018-08-06T04:44:58.060Z,48.30
2018-08-06T04:47:28.725Z,48.30
2018-08-06T04:49:59.419Z,48.50
2018-08-06T04:52:29.884Z,48.70
2018-08-06T04:55:00.603Z,48.70
2018-08-06T04:57:31.912Z,48.60
2018-08-06T05:00:02.902Z,49.20
2018-08-06T05:02:33.631Z,48.70
2018-08-06T05:05:05.352Z,49.00
2018-08-06T05:07:36.291Z,48.70
2018-08-06T05:10:06.739Z,48.70
2018-08-06T05:12:37.464Z,49.20
2018-08-06T05:15:08.218Z,49.20
2018-08-06T05:17:38.627Z,48.90
2018-08-06T05:20:09.297Z,49.20
2018-08-06T05:22:40.228Z,49.10
2018-08-06T05:25:11.332Z,49.10
2018-08-06T05:27:42.042Z,48.90
2018-08-06T05:30:14.157Z,49.30
2018-08-06T05:32:44.824Z,49.00
2018-08-06T05:35:15.636Z,49.90
2018-08-06T05:37:46.657Z,49.50
2018-08-06T05:40:17.096Z,49.30
2018-08-06T05:42:48.080Z,49.10
2018-08-06T05:45:18.559Z,49.00
2018-08-06T05:47:49.545Z,48.90
2018-08-06T05:50:20.208Z,48.90
2018-08-06T05:52:51.082Z,48.70
2018-08-06T05:57:52.332Z,48.50
2018-08-06T06:00:23.036Z,48.40
2018-08-06T06:02:53.869Z,48.20
2018-08-06T06:05:24.250Z,48.20
2018-08-06T06:07:54.599Z,48.00
2018-08-06T06:10:25.532Z,48.30
2018-08-06T06:12:57.012Z,47.90
2018-08-06T06:15:27.383Z,47.60
2018-08-06T06:17:58.475Z,47.40
2018-08-06T06:20:29.071Z,47.20
2018-08-06T06:22:59.420Z,48.10
2018-08-06T06:25:29.801Z,47.00
2018-08-06T06:30:30.401Z,46.90
2018-08-06T06:33:01.298Z,47.10
2018-08-06T06:35:31.685Z,46.90
2018-08-06T06:40:32.610Z,47.20
2018-08-06T06:43:03.284Z,46.00
2018-08-06T06:48:05.056Z,45.60
2018-08-06T06:50:36.830Z,45.50
2018-08-06T06:53:08.181Z,46.10
2018-08-06T06:55:39.159Z,45.60
2018-08-06T07:03:12.011Z,43.80
2018-08-06T07:05:43.067Z,42.80
2018-08-06T07:08:14.050Z,42.20
2018-08-06T07:13:16.902Z,41.00
2018-08-06T07:15:47.841Z,40.60
2018-08-06T07:18:19.353Z,39.60
2018-08-06T07:20:50.889Z,38.90
2018-08-06T07:25:52.927Z,37.20
2018-08-06T07:28:24.050Z,36.10
2018-08-06T07:30:55.351Z,36.10
2018-08-06T07:33:26.250Z,35.20
2018-08-06T07:35:57.447Z,34.70
2018-08-06T07:38:28.676Z,34.50
2018-08-06T07:43:30.572Z,33.80
2018-08-06T07:46:01.801Z,33.10
2018-08-06T07:51:04.614Z,32.80
2018-08-06T07:53:35.817Z,31.90
2018-08-06T07:56:07.397Z,31.50
2018-08-06T07:58:38.250Z,31.50
2018-08-06T08:01:09.533Z,32.10
2018-08-06T08:03:40.665Z,31.20
2018-08-06T08:08:42.057Z,30.80
2018-08-06T08:13:42.912Z,30.00
2018-08-06T08:16:13.576Z,29.10
2018-08-06T08:18:45.234Z,29.00
2018-08-06T08:21:16.304Z,28.60
2018-08-06T08:23:47.492Z,28.20
2018-08-06T08:26:18.384Z,28.10
2018-08-06T08:28:49.576Z,27.50
2018-08-06T08:31:20.461Z,27.00
2018-08-06T08:33:51.783Z,26.60
2018-08-06T08:36:22.868Z,26.40
2018-08-06T08:38:54.160Z,25.90
2018-08-06T08:41:25.081Z,26.10
2018-08-06T08:43:56.223Z,25.10
2018-08-06T08:46:27.218Z,24.50
2018-08-06T08:48:58.544Z,24.20
2018-08-06T08:51:29.615Z,24.30
2018-08-06T08:54:01.055Z,24.10
2018-08-06T08:56:32.310Z,23.60
2018-08-06T08:59:03.487Z,23.50
2018-08-06T09:01:34.504Z,23.10
2018-08-06T09:04:05.520Z,23.00
2018-08-06T09:06:36.484Z,23.00
2018-08-06T09:11:41.190Z,22.50
2018-08-06T09:14:11.910Z,22.90
2018-08-06T09:16:42.836Z,22.60
2018-08-06T09:19:14.278Z,22.60
2018-08-06T09:21:45.561Z,22.20
2018-08-06T09:24:16.924Z,22.20
2018-08-06T09:26:47.925Z,22.50
2018-08-06T09:29:18.775Z,22.20
2018-08-06T09:31:49.960Z,23.00
2018-08-06T09:34:20.662Z,22.80
2018-08-06T09:36:51.840Z,22.80
2018-08-06T09:39:22.838Z,22.40
2018-08-06T09:41:54.295Z,22.70
2018-08-06T09:44:25.234Z,22.70
2018-08-06T09:46:56.184Z,22.80
2018-08-06T09:51:58.322Z,23.50
2018-08-06T09:54:29.802Z,23.20
2018-08-06T09:57:01.269Z,23.40
2018-08-06T09:59:32.338Z,24.00
2018-08-06T10:04:33.969Z,25.20
2018-08-06T10:09:36.206Z,25.20
2018-08-06T10:12:07.686Z,25.30
2018-08-06T10:14:38.779Z,25.40
2018-08-06T10:19:40.944Z,25.90
2018-08-06T10:22:12.299Z,25.90
2018-08-06T10:27:13.707Z,26.30
2018-08-06T10:29:44.856Z,26.50
2018-08-06T10:32:16.028Z,27.20
2018-08-06T10:34:47.175Z,27.30
2018-08-06T10:37:18.599Z,27.20
2018-08-06T10:39:49.634Z,27.60
2018-08-06T10:42:20.912Z,27.40
2018-08-06T10:44:52.304Z,27.30
2018-08-06T10:47:24.063Z,27.20
2018-08-06T10:49:55.694Z,27.60
2018-08-06T10:52:27.124Z,27.80
2018-08-06T10:54:58.027Z,27.80
2018-08-06T10:57:29.609Z,27.50
2018-08-06T11:00:01.204Z,27.50
2018-08-06T11:02:32.865Z,27.40
2018-08-06T11:05:04.625Z,27.40
2018-08-06T11:07:35.787Z,27.60
2018-08-06T11:10:10.520Z,27.60
2018-08-06T11:12:41.825Z,28.00
2018-08-06T11:15:16.624Z,28.10
2018-08-06T11:20:19.529Z,28.20
2018-08-06T11:22:51.644Z,28.50
2018-08-06T11:25:24.038Z,27.90
2018-08-06T11:27:54.983Z,27.90
2018-08-06T11:30:26.226Z,28.10
2018-08-06T11:32:57.639Z,28.10
2018-08-06T11:35:28.800Z,28.10
2018-08-06T11:37:59.971Z,28.00
2018-08-06T11:40:31.815Z,28.00
2018-08-06T11:43:02.751Z,28.00
2018-08-06T11:45:33.759Z,28.10
2018-08-06T11:48:04.717Z,27.90
2018-08-06T11:50:35.614Z,27.90
2018-08-06T11:53:13.535Z,28.10
2018-08-06T11:55:44.749Z,27.90
2018-08-06T12:00:46.668Z,27.80
2018-08-06T12:03:18.032Z,28.00
2018-08-06T12:05:49.547Z,28.10
2018-08-06T12:08:20.722Z,28.60
2018-08-06T12:10:52.405Z,28.70
2018-08-06T12:15:54.104Z,28.40
2018-08-06T12:18:25.305Z,28.70
2018-08-06T12:20:56.495Z,28.60
2018-08-06T12:25:58.634Z,28.70
2018-08-06T12:28:30.692Z,28.50
2018-08-06T12:31:02.157Z,28.40
2018-08-06T12:36:04.471Z,29.00
2018-08-06T12:38:47.360Z,29.10
2018-08-06T12:43:49.713Z,29.40
2018-08-06T12:48:52.159Z,29.00
2018-08-06T12:51:23.726Z,28.60
2018-08-06T12:53:55.124Z,28.30
2018-08-06T12:56:26.456Z,28.30
2018-08-06T12:58:58.243Z,28.70
2018-08-06T13:04:00.604Z,29.00
2018-08-06T13:06:32.063Z,29.00
2018-08-06T13:09:03.570Z,29.20
2018-08-06T13:11:35.095Z,29.00
2018-08-06T13:14:06.821Z,29.20
2018-08-06T13:16:37.787Z,29.40
2018-08-06T13:19:09.115Z,29.30
2018-08-06T13:21:40.623Z,29.60
2018-08-06T13:24:11.823Z,29.10
2018-08-06T13:26:43.567Z,28.90
2018-08-06T13:31:47.559Z,29.00
2018-08-06T13:34:19.159Z,28.90
2018-08-06T13:36:50.440Z,29.70
2018-08-06T13:39:21.840Z,29.20
2018-08-06T13:44:24.276Z,29.20
2018-08-06T13:46:56.449Z,29.40
2018-08-06T13:49:27.759Z,29.30
2018-08-06T13:51:58.675Z,29.40
2018-08-06T13:57:00.333Z,29.40
2018-08-06T13:59:31.580Z,29.30
2018-08-06T14:02:03.403Z,29.50
2018-08-06T14:04:34.350Z,29.50
2018-08-06T14:07:05.306Z,29.70
2018-08-06T14:09:36.736Z,29.50
2018-08-06T14:12:07.891Z,29.30
2018-08-06T14:14:39.363Z,29.40
2018-08-06T14:17:10.508Z,29.10
2018-08-06T14:19:41.663Z,29.20
2018-08-06T14:22:13.568Z,29.00
2018-08-06T14:24:44.519Z,28.90
2018-08-06T14:27:15.726Z,29.10
2018-08-06T14:29:47.239Z,29.00
2018-08-06T14:34:49.800Z,29.30
2018-08-06T14:37:20.699Z,29.40
2018-08-06T14:39:51.883Z,29.60
2018-08-06T14:42:23.358Z,28.90
2018-08-06T14:49:55.827Z,28.90
2018-08-06T14:52:27.144Z,28.80
2018-08-06T14:54:58.141Z,29.00
2018-08-06T14:57:33.795Z,29.00
2018-08-06T15:02:44.477Z,29.00
2018-08-06T15:05:15.731Z,28.80
2018-08-06T15:10:18.127Z,28.80
2018-08-06T15:12:49.105Z,28.40
2018-08-06T15:15:20.095Z,28.50
2018-08-06T15:20:22.449Z,28.80
2018-08-06T15:22:54.024Z,28.60
2018-08-06T15:27:56.307Z,28.90
2018-08-06T15:32:58.675Z,28.90
2018-08-06T15:35:29.669Z,28.70
2018-08-06T15:38:00.632Z,28.70
2018-08-06T15:40:31.883Z,28.70
2018-08-06T15:43:03.416Z,28.90
2018-08-06T15:45:34.448Z,29.00
2018-08-06T15:48:05.433Z,28.90
2018-08-06T15:50:37.195Z,28.90
2018-08-06T15:55:39.487Z,29.30
2018-08-06T15:58:10.693Z,29.00
2018-08-06T16:03:12.442Z,29.30
2018-08-06T16:05:44.165Z,29.10
2018-08-06T16:08:15.407Z,29.20
2018-08-06T16:13:17.892Z,29.30
2018-08-06T16:15:51.191Z,29.10
2018-08-06T16:18:22.736Z,29.10
2018-08-06T16:25:55.897Z,29.40
2018-08-06T16:28:26.982Z,29.30
2018-08-06T16:30:58.896Z,29.30
2018-08-06T16:33:29.847Z,29.10
2018-08-06T16:36:00.863Z,29.20
2018-08-06T16:38:32.593Z,29.10
2018-08-06T16:43:34.941Z,29.00
2018-08-06T16:46:06.227Z,29.50
2018-08-06T16:51:09.551Z,28.70
2018-08-06T16:53:40.715Z,28.80
2018-08-06T16:56:12.115Z,28.60
2018-08-06T17:01:14.478Z,28.80
2018-08-06T17:03:46.195Z,28.90
2018-08-06T17:08:48.942Z,28.80
2018-08-06T17:11:20.361Z,28.60
2018-08-06T17:13:51.505Z,28.70
2018-08-06T17:16:22.660Z,28.80
2018-08-06T17:18:53.800Z,28.80
2018-08-06T17:21:25.203Z,28.90
2018-08-06T17:23:56.113Z,29.00
2018-08-06T17:26:28.187Z,29.00
2018-08-06T17:28:59.323Z,29.20
2018-08-06T17:31:31.088Z,29.60
2018-08-06T17:36:33.441Z,30.10
2018-08-06T17:39:06.868Z,30.50
2018-08-06T17:44:08.838Z,30.90
2018-08-06T17:49:11.273Z,31.50
2018-08-06T17:51:42.296Z,31.50
2018-08-06T17:54:13.621Z,31.80
2018-08-06T17:56:47.008Z,32.00
2018-08-06T18:01:49.161Z,33.10
2018-08-06T18:04:20.615Z,33.70
2018-08-06T18:06:51.767Z,33.90
2018-08-06T18:09:22.731Z,33.80
2018-08-06T18:11:53.755Z,34.20
2018-08-06T18:16:55.613Z,34.60
2018-08-06T18:19:27.386Z,34.70
2018-08-06T18:24:29.615Z,34.30
2018-08-06T18:27:02.600Z,34.20
2018-08-06T18:29:34.555Z,34.00
2018-08-06T18:32:06.687Z,34.80
2018-08-06T18:34:37.928Z,35.50
2018-08-06T18:37:09.443Z,35.50
2018-08-06T18:42:11.931Z,35.50
2018-08-06T18:44:43.159Z,35.60
2018-08-06T18:47:14.416Z,35.80
2018-08-06T18:49:45.947Z,36.30
2018-08-06T18:52:17.322Z,36.70
2018-08-06T18:54:48.288Z,36.40
2018-08-06T18:57:20.046Z,36.60
2018-08-06T19:04:53.277Z,36.90
2018-08-06T19:07:24.636Z,36.90
2018-08-06T19:09:56.245Z,37.10
2018-08-06T19:12:33.029Z,37.70
2018-08-06T19:15:04.271Z,37.50
2018-08-06T19:17:39.618Z,37.20
2018-08-06T19:20:10.575Z,37.60
2018-08-06T19:25:17.843Z,38.10
2018-08-06T19:27:49.723Z,38.20
2018-08-06T19:30:21.698Z,38.70
2018-08-06T19:32:52.163Z,39.10
2018-08-06T19:35:23.445Z,39.40
2018-08-06T19:37:54.787Z,39.10
2018-08-06T19:40:26.110Z,39.50
2018-08-06T19:43:02.221Z,39.10
2018-08-06T19:48:04.376Z,39.20
2018-08-06T19:50:40.087Z,39.10
2018-08-06T19:53:11.185Z,39.60
2018-08-06T19:55:47.976Z,40.40
2018-08-06T19:58:18.988Z,40.10
2018-08-06T20:00:50.495Z,39.90
2018-08-06T20:05:52.339Z,40.40
2018-08-06T20:08:23.125Z,40.70
2018-08-06T20:10:54.566Z,40.70
2018-08-06T20:13:25.351Z,40.70
2018-08-06T20:15:56.593Z,40.60
2018-08-06T20:18:27.653Z,40.90
2018-08-06T20:23:29.184Z,41.40
2018-08-06T20:26:00.385Z,41.70
2018-08-06T20:31:02.672Z,41.20
2018-08-06T20:33:33.798Z,41.70
2018-08-06T20:36:04.744Z,41.90
2018-08-06T20:38:35.957Z,41.30
2018-08-06T20:41:06.555Z,42.00
2018-08-06T20:43:37.344Z,41.70
2018-08-06T20:46:08.655Z,41.90
2018-08-06T20:48:39.796Z,42.10
2018-08-06T20:53:40.447Z,42.30
2018-08-06T20:58:41.776Z,42.40
2018-08-06T21:01:12.697Z,42.60
2018-08-06T21:03:43.894Z,42.80
2018-08-06T21:06:15.436Z,42.80
2018-08-06T21:08:46.165Z,43.00
2018-08-06T21:11:16.900Z,43.10
2018-08-06T21:13:47.615Z,43.10
2018-08-06T21:16:18.030Z,43.40
2018-08-06T21:18:48.963Z,43.40
2018-08-06T21:21:19.653Z,43.40
2018-08-06T21:23:50.573Z,43.60
2018-08-06T21:26:21.000Z,43.70
2018-08-06T21:31:21.807Z,43.70
2018-08-06T21:33:52.263Z,43.80
2018-08-06T21:36:22.745Z,43.80
2018-08-06T21:38:53.460Z,44.00
2018-08-06T21:41:24.376Z,44.40
2018-08-06T21:43:55.137Z,44.40
2018-08-06T21:46:26.624Z,44.60
2018-08-06T21:48:57.128Z,44.60
2018-08-06T21:51:27.956Z,44.70
2018-08-06T21:53:58.685Z,44.70
2018-08-06T21:56:30.137Z,44.90
2018-08-06T21:59:01.518Z,45.30
2018-08-06T22:01:32.575Z,45.40
2018-08-06T22:04:03.300Z,45.30
2018-08-06T22:06:34.623Z,45.40
2018-08-06T22:09:10.877Z,45.30
2018-08-06T22:11:42.072Z,45.40
2018-08-06T22:14:12.578Z,45.50
2018-08-06T22:16:43.018Z,45.70
2018-08-06T22:19:13.760Z,45.80
2018-08-06T22:21:44.727Z,46.10
2018-08-06T22:24:15.706Z,46.00
2018-08-06T22:26:46.763Z,46.20
2018-08-06T22:29:17.791Z,46.10
2018-08-06T22:31:48.939Z,46.20
2018-08-06T22:34:19.973Z,46.40
2018-08-06T22:36:50.880Z,46.40
2018-08-06T22:39:21.635Z,47.00
2018-08-06T22:41:52.972Z,46.20
2018-08-06T22:44:24.163Z,46.30
2018-08-06T22:46:54.618Z,46.80
2018-08-06T22:49:25.091Z,46.60
2018-08-06T22:51:56.079Z,46.60
2018-08-06T22:56:57.096Z,47.00
2018-08-06T22:59:27.832Z,47.60
2018-08-06T23:01:58.760Z,47.20
2018-08-06T23:04:30.004Z,47.60
2018-08-06T23:09:31.263Z,48.00
2018-08-06T23:12:01.676Z,47.90
2018-08-06T23:14:33.548Z,47.90
2018-08-06T23:17:04.276Z,48.20
2018-08-06T23:19:35.423Z,48.20
2018-08-06T23:22:06.169Z,48.30
2018-08-06T23:24:36.623Z,48.10
2018-08-06T23:32:07.964Z,48.60
2018-08-06T23:37:09.220Z,48.40
2018-08-06T23:42:10.367Z,48.70
2018-08-06T23:44:40.948Z,48.50
2018-08-06T23:47:11.394Z,48.50
2018-08-06T23:49:42.112Z,49.00
2018-08-06T23:54:44.232Z,48.80
2018-08-06T23:57:14.883Z,48.80
2018-08-06T23:59:45.835Z,49.10
